DAL2159 KATL-KLGA
Flight info
| Callsign | DAL2159 |
|---|---|
| Flight time | 1h 50m |
| Altitude | 35000 |
| Route | JACCC2 KELLN BYJAC Q60 HURTS PROUD2 |
| Aircraft | B738/M-SDE2E3FGHIRWXY/LB1 |
Departure
| Time | 2026-05-04 15:32 |
|---|---|
| Airport | Hartsfield Jackson Atlanta International Airport (KATL) |
Arrival
| Time | 2026-05-04 17:22 |
|---|---|
| Airport | LaGuardia Airport (KLGA) |
| Time | Latitude | Longitude | Altitude | Speed | Heading |
|---|---|---|---|---|---|
| 2026-05-04 15:04 | 33.63833 | -84.42507 | 1005 ft | 0 kts | 269° |
| 2026-05-04 15:20 | 33.63833 | -84.42486 | 1005 ft | 4 kts | 269° |
| 2026-05-04 15:21 | 33.63835 | -84.42454 | 1005 ft | 4 kts | 253° |
| 2026-05-04 15:21 | 33.63847 | -84.42426 | 1005 ft | 4 kts | 220° |
| 2026-05-04 15:21 | 33.63863 | -84.42417 | 1005 ft | 1 kts | 180° |
| 2026-05-04 15:24 | 33.63835 | -84.42416 | 1005 ft | 6 kts | 179° |
| 2026-05-04 15:25 | 33.63778 | -84.42416 | 1005 ft | 10 kts | 180° |
| 2026-05-04 15:25 | 33.63705 | -84.42415 | 1006 ft | 11 kts | 177° |
| 2026-05-04 15:25 | 33.63657 | -84.42348 | 1006 ft | 14 kts | 91° |
| 2026-05-04 15:26 | 33.63656 | -84.42055 | 1006 ft | 21 kts | 91° |
| 2026-05-04 15:26 | 33.63656 | -84.41904 | 1005 ft | 19 kts | 90° |
| 2026-05-04 15:26 | 33.63655 | -84.41535 | 1005 ft | 25 kts | 90° |
| 2026-05-04 15:27 | 33.63658 | -84.41387 | 1005 ft | 17 kts | 88° |
| 2026-05-04 15:27 | 33.63655 | -84.41098 | 1005 ft | 17 kts | 91° |
| 2026-05-04 15:28 | 33.63637 | -84.40917 | 1005 ft | 6 kts | 144° |
| 2026-05-04 15:28 | 33.63588 | -84.40907 | 1005 ft | 5 kts | 180° |
| 2026-05-04 15:28 | 33.63570 | -84.40907 | 1005 ft | 0 kts | 179° |
| 2026-05-04 15:30 | 33.63563 | -84.40907 | 1005 ft | 2 kts | 179° |
| 2026-05-04 15:30 | 33.63470 | -84.40975 | 1006 ft | 2 kts | 268° |
| 2026-05-04 15:31 | 33.63467 | -84.42154 | 1005 ft | 142 kts | 270° |
| 2026-05-04 15:31 | 33.63467 | -84.43534 | 1234 ft | 182 kts | 270° |
| 2026-05-04 15:32 | 33.63185 | -84.48309 | 3714 ft | 193 kts | 239° |
| 2026-05-04 15:32 | 33.61732 | -84.51501 | 4231 ft | 243 kts | 244° |
| 2026-05-04 15:33 | 33.60119 | -84.55349 | 5335 ft | 264 kts | 244° |
| 2026-05-04 15:34 | 33.55623 | -84.58557 | 7419 ft | 271 kts | 180° |
| 2026-05-04 15:34 | 33.53732 | -84.58554 | 8078 ft | 275 kts | 178° |
| 2026-05-04 15:34 | 33.49818 | -84.58463 | 9365 ft | 284 kts | 174° |
| 2026-05-04 15:35 | 33.46511 | -84.56184 | 10612 ft | 289 kts | 124° |
| 2026-05-04 15:35 | 33.45706 | -84.53901 | 10763 ft | 310 kts | 100° |
| 2026-05-04 15:35 | 33.45555 | -84.51246 | 10919 ft | 330 kts | 91° |
| 2026-05-04 15:36 | 33.45608 | -84.45428 | 11196 ft | 368 kts | 90° |
| 2026-05-04 15:36 | 33.45625 | -84.42316 | 11550 ft | 377 kts | 90° |
| 2026-05-04 15:36 | 33.45618 | -84.39151 | 12044 ft | 383 kts | 90° |
| 2026-05-04 15:37 | 33.45603 | -84.35941 | 12606 ft | 388 kts | 89° |
| 2026-05-04 15:37 | 33.45980 | -84.32743 | 13132 ft | 391 kts | 69° |
| 2026-05-04 15:37 | 33.47168 | -84.29814 | 13721 ft | 393 kts | 60° |
| 2026-05-04 15:37 | 33.48490 | -84.26920 | 14228 ft | 398 kts | 59° |
| 2026-05-04 15:38 | 33.49830 | -84.24000 | 14756 ft | 402 kts | 59° |
| 2026-05-04 15:38 | 33.51179 | -84.21049 | 15309 ft | 406 kts | 59° |
| 2026-05-04 15:38 | 33.52531 | -84.18065 | 15857 ft | 410 kts | 59° |
| 2026-05-04 15:38 | 33.53890 | -84.15045 | 16397 ft | 413 kts | 59° |
| 2026-05-04 15:39 | 33.55257 | -84.11991 | 16940 ft | 417 kts | 58° |
| 2026-05-04 15:39 | 33.56631 | -84.08912 | 17444 ft | 421 kts | 58° |
| 2026-05-04 15:39 | 33.59399 | -84.02693 | 18452 ft | 429 kts | 58° |
| 2026-05-04 15:40 | 33.60810 | -83.99516 | 18884 ft | 433 kts | 58° |
| 2026-05-04 15:40 | 33.62233 | -83.96309 | 19325 ft | 437 kts | 58° |
| 2026-05-04 15:40 | 33.63666 | -83.93078 | 19753 ft | 441 kts | 58° |
| 2026-05-04 15:40 | 33.65112 | -83.89816 | 20193 ft | 444 kts | 58° |
| 2026-05-04 15:41 | 33.66568 | -83.86527 | 20638 ft | 447 kts | 58° |
| 2026-05-04 15:41 | 33.68030 | -83.83219 | 21040 ft | 451 kts | 58° |
| 2026-05-04 15:41 | 33.69500 | -83.79892 | 21440 ft | 455 kts | 58° |
| 2026-05-04 15:41 | 33.70986 | -83.76526 | 21840 ft | 458 kts | 58° |
| 2026-05-04 15:42 | 33.72482 | -83.73132 | 22233 ft | 461 kts | 58° |
| 2026-05-04 15:42 | 33.73989 | -83.69712 | 22624 ft | 465 kts | 58° |
| 2026-05-04 15:42 | 33.75505 | -83.66270 | 23012 ft | 468 kts | 58° |
| 2026-05-04 15:42 | 33.77086 | -83.62841 | 23373 ft | 470 kts | 55° |
| 2026-05-04 15:43 | 33.78819 | -83.59504 | 23745 ft | 472 kts | 53° |
| 2026-05-04 15:43 | 33.80629 | -83.56197 | 24041 ft | 474 kts | 52° |
| 2026-05-04 15:43 | 33.82464 | -83.52887 | 24367 ft | 476 kts | 52° |
| 2026-05-04 15:43 | 33.84295 | -83.49563 | 24728 ft | 478 kts | 52° |
| 2026-05-04 15:44 | 33.86122 | -83.46210 | 25032 ft | 480 kts | 53° |
| 2026-05-04 15:44 | 33.87945 | -83.42828 | 25307 ft | 483 kts | 53° |
| 2026-05-04 15:44 | 33.89772 | -83.39415 | 25597 ft | 486 kts | 53° |
| 2026-05-04 15:44 | 33.91576 | -83.36031 | 25886 ft | 488 kts | 53° |
| 2026-05-04 15:45 | 33.93412 | -83.32578 | 26172 ft | 490 kts | 53° |
| 2026-05-04 15:45 | 33.95254 | -83.29110 | 26445 ft | 493 kts | 53° |
| 2026-05-04 15:45 | 33.97107 | -83.25622 | 26713 ft | 495 kts | 53° |
| 2026-05-04 15:45 | 33.98965 | -83.22122 | 26970 ft | 497 kts | 53° |
| 2026-05-04 15:46 | 34.00832 | -83.18604 | 27231 ft | 499 kts | 53° |
| 2026-05-04 15:46 | 34.02705 | -83.15071 | 27517 ft | 502 kts | 53° |
| 2026-05-04 15:46 | 34.04589 | -83.11514 | 27748 ft | 504 kts | 53° |
| 2026-05-04 15:46 | 34.06476 | -83.07946 | 27984 ft | 506 kts | 54° |
| 2026-05-04 15:47 | 34.08370 | -83.04361 | 28323 ft | 506 kts | 54° |
| 2026-05-04 15:47 | 34.10257 | -83.00784 | 28731 ft | 505 kts | 54° |
| 2026-05-04 15:47 | 34.12142 | -82.97212 | 29117 ft | 504 kts | 54° |
| 2026-05-04 15:47 | 34.14027 | -82.93629 | 29461 ft | 504 kts | 54° |
| 2026-05-04 15:48 | 34.15897 | -82.90056 | 29792 ft | 504 kts | 54° |
| 2026-05-04 15:48 | 34.17767 | -82.86474 | 30122 ft | 504 kts | 54° |
| 2026-05-04 15:48 | 34.21496 | -82.79315 | 30733 ft | 503 kts | 54° |
| 2026-05-04 15:49 | 34.23358 | -82.75736 | 31010 ft | 503 kts | 54° |
| 2026-05-04 15:49 | 34.25219 | -82.72158 | 31253 ft | 503 kts | 54° |
| 2026-05-04 15:49 | 34.27080 | -82.68576 | 31572 ft | 502 kts | 54° |
| 2026-05-04 15:49 | 34.28907 | -82.65056 | 31914 ft | 500 kts | 54° |
| 2026-05-04 15:50 | 34.30750 | -82.61501 | 32218 ft | 499 kts | 54° |
| 2026-05-04 15:50 | 34.32597 | -82.57938 | 32457 ft | 500 kts | 54° |
| 2026-05-04 15:50 | 34.34443 | -82.54372 | 32702 ft | 500 kts | 54° |
| 2026-05-04 15:50 | 34.36287 | -82.50805 | 32987 ft | 499 kts | 54° |
| 2026-05-04 15:51 | 34.38124 | -82.47248 | 33288 ft | 498 kts | 54° |
| 2026-05-04 15:51 | 34.39958 | -82.43694 | 33562 ft | 497 kts | 54° |
| 2026-05-04 15:51 | 34.41789 | -82.40142 | 33810 ft | 498 kts | 54° |
| 2026-05-04 15:51 | 34.43622 | -82.36585 | 34008 ft | 498 kts | 54° |
| 2026-05-04 15:52 | 34.45442 | -82.33005 | 34210 ft | 500 kts | 56° |
| 2026-05-04 15:52 | 34.47141 | -82.29331 | 34452 ft | 500 kts | 58° |
| 2026-05-04 15:52 | 34.48775 | -82.25611 | 34673 ft | 499 kts | 58° |
| 2026-05-04 15:52 | 34.50412 | -82.21914 | 34917 ft | 498 kts | 57° |
| 2026-05-04 15:53 | 34.52079 | -82.18226 | 35116 ft | 497 kts | 56° |
| 2026-05-04 15:53 | 34.53992 | -82.14749 | 35109 ft | 495 kts | 46° |
| 2026-05-04 15:53 | 34.58527 | -82.08532 | 35126 ft | 489 kts | 42° |
| 2026-05-04 15:54 | 34.63134 | -82.02494 | 35124 ft | 486 kts | 42° |
| 2026-05-04 15:54 | 34.67660 | -81.96408 | 35121 ft | 485 kts | 43° |
| 2026-05-04 15:55 | 34.72123 | -81.90276 | 35116 ft | 484 kts | 44° |
| 2026-05-04 15:55 | 34.75819 | -81.85162 | 35119 ft | 484 kts | 43° |
| 2026-05-04 15:56 | 34.80266 | -81.78998 | 35122 ft | 485 kts | 43° |
| 2026-05-04 15:56 | 34.84720 | -81.72819 | 35116 ft | 486 kts | 43° |
| 2026-05-04 15:57 | 34.89179 | -81.66625 | 35113 ft | 487 kts | 43° |
| 2026-05-04 15:57 | 34.93650 | -81.60405 | 35114 ft | 488 kts | 43° |
| 2026-05-04 15:58 | 34.98101 | -81.54202 | 35115 ft | 490 kts | 43° |
| 2026-05-04 15:58 | 35.02595 | -81.47925 | 35114 ft | 491 kts | 43° |
| 2026-05-04 15:59 | 35.07089 | -81.41638 | 35106 ft | 492 kts | 43° |
| 2026-05-04 15:59 | 35.11587 | -81.35333 | 35107 ft | 492 kts | 43° |
| 2026-05-04 16:00 | 35.16081 | -81.29022 | 35115 ft | 492 kts | 43° |
| 2026-05-04 16:00 | 35.20570 | -81.22705 | 35133 ft | 492 kts | 43° |
| 2026-05-04 16:01 | 35.25051 | -81.16390 | 35118 ft | 491 kts | 43° |
| 2026-05-04 16:01 | 35.29523 | -81.10075 | 35116 ft | 490 kts | 43° |
| 2026-05-04 16:02 | 35.33982 | -81.03768 | 35111 ft | 489 kts | 43° |
| 2026-05-04 16:03 | 35.40642 | -80.94326 | 35118 ft | 488 kts | 43° |
| 2026-05-04 16:03 | 35.45074 | -80.88030 | 35138 ft | 488 kts | 43° |
| 2026-05-04 16:04 | 35.49475 | -80.81764 | 35142 ft | 488 kts | 43° |
| 2026-05-04 16:04 | 35.56114 | -80.72291 | 35133 ft | 488 kts | 43° |
| 2026-05-04 16:05 | 35.60538 | -80.65964 | 35122 ft | 488 kts | 43° |
| 2026-05-04 16:06 | 35.67179 | -80.56444 | 35116 ft | 489 kts | 43° |
| 2026-05-04 16:07 | 35.76038 | -80.43702 | 35120 ft | 490 kts | 43° |
| 2026-05-04 16:08 | 35.84905 | -80.30900 | 35119 ft | 491 kts | 43° |
| 2026-05-04 16:09 | 35.95975 | -80.14805 | 35074 ft | 494 kts | 46° |
| 2026-05-04 16:10 | 36.03475 | -80.00399 | 35103 ft | 499 kts | 52° |
| 2026-05-04 16:11 | 36.10981 | -79.86040 | 35107 ft | 498 kts | 49° |
| 2026-05-04 16:12 | 36.23033 | -79.65074 | 35080 ft | 499 kts | 49° |
| 2026-05-04 16:13 | 36.31004 | -79.50973 | 35089 ft | 500 kts | 48° |
| 2026-05-04 16:14 | 36.38975 | -79.36817 | 35074 ft | 500 kts | 48° |
| 2026-05-04 16:16 | 36.48860 | -79.19185 | 35087 ft | 498 kts | 48° |
| 2026-05-04 16:17 | 36.58723 | -79.01502 | 35067 ft | 497 kts | 49° |
| 2026-05-04 16:18 | 36.66543 | -78.87303 | 35074 ft | 497 kts | 49° |
| 2026-05-04 16:19 | 36.75492 | -78.68899 | 35741 ft | 494 kts | 58° |
| 2026-05-04 16:20 | 36.80187 | -78.57354 | 36021 ft | 500 kts | 58° |
| 2026-05-04 16:20 | 36.83390 | -78.49646 | 36389 ft | 500 kts | 57° |
| 2026-05-04 16:21 | 36.88193 | -78.38121 | 36947 ft | 498 kts | 58° |
| 2026-05-04 16:22 | 36.91393 | -78.30418 | 37084 ft | 501 kts | 58° |
| 2026-05-04 16:23 | 37.00877 | -78.07456 | 37054 ft | 491 kts | 58° |
| 2026-05-04 16:25 | 37.10233 | -77.84676 | 37089 ft | 491 kts | 59° |
| 2026-05-04 16:26 | 37.21152 | -77.57871 | 37055 ft | 496 kts | 59° |
| 2026-05-04 16:28 | 37.28974 | -77.38526 | 37090 ft | 498 kts | 59° |
| 2026-05-04 16:29 | 37.39889 | -77.11332 | 37062 ft | 497 kts | 59° |
| 2026-05-04 16:31 | 37.48999 | -76.93470 | 37045 ft | 472 kts | 25° |
| 2026-05-04 16:32 | 37.66307 | -76.82126 | 37052 ft | 469 kts | 21° |
| 2026-05-04 16:33 | 37.77855 | -76.74395 | 37045 ft | 472 kts | 22° |
| 2026-05-04 16:34 | 37.86582 | -76.68539 | 37038 ft | 474 kts | 22° |
| 2026-05-04 16:35 | 38.04260 | -76.57307 | 37040 ft | 473 kts | 20° |
| 2026-05-04 16:36 | 38.13073 | -76.51702 | 37070 ft | 472 kts | 20° |
| 2026-05-04 16:37 | 38.21866 | -76.46089 | 37044 ft | 471 kts | 20° |
| 2026-05-04 16:38 | 38.33241 | -76.37892 | 37076 ft | 478 kts | 32° |
| 2026-05-04 16:39 | 38.46300 | -76.24689 | 37028 ft | 478 kts | 32° |
| 2026-05-04 16:40 | 38.56866 | -76.14335 | 36529 ft | 485 kts | 32° |
| 2026-05-04 16:41 | 38.62184 | -76.09097 | 35415 ft | 480 kts | 32° |
| 2026-05-04 16:41 | 38.70168 | -76.01556 | 33832 ft | 467 kts | 29° |
| 2026-05-04 16:42 | 38.77223 | -75.95019 | 31802 ft | 465 kts | 30° |
| 2026-05-04 16:43 | 38.83313 | -75.89316 | 29986 ft | 465 kts | 31° |
| 2026-05-04 16:43 | 38.88517 | -75.84424 | 28348 ft | 462 kts | 31° |
| 2026-05-04 16:43 | 38.91103 | -75.81991 | 27674 ft | 458 kts | 31° |
| 2026-05-04 16:44 | 39.00266 | -75.73341 | 26374 ft | 443 kts | 31° |
| 2026-05-04 16:45 | 39.05312 | -75.68577 | 25841 ft | 452 kts | 32° |
| 2026-05-04 16:46 | 39.12791 | -75.61472 | 25059 ft | 440 kts | 32° |
| 2026-05-04 16:46 | 39.17689 | -75.56814 | 24564 ft | 436 kts | 32° |
| 2026-05-04 16:47 | 39.22521 | -75.52214 | 24079 ft | 434 kts | 32° |
| 2026-05-04 16:47 | 39.27467 | -75.47691 | 23302 ft | 437 kts | 30° |
| 2026-05-04 16:48 | 39.34906 | -75.41173 | 22123 ft | 425 kts | 30° |
| 2026-05-04 16:48 | 39.37354 | -75.39011 | 21744 ft | 426 kts | 30° |
| 2026-05-04 16:49 | 39.42238 | -75.34670 | 20981 ft | 426 kts | 30° |
| 2026-05-04 16:49 | 39.47112 | -75.30321 | 20226 ft | 425 kts | 30° |
| 2026-05-04 16:50 | 39.51961 | -75.25973 | 19479 ft | 423 kts | 31° |
| 2026-05-04 16:50 | 39.56719 | -75.21514 | 18757 ft | 421 kts | 32° |
| 2026-05-04 16:51 | 39.61438 | -75.17061 | 17967 ft | 418 kts | 32° |
| 2026-05-04 16:51 | 39.63786 | -75.14854 | 17574 ft | 416 kts | 32° |
| 2026-05-04 16:51 | 39.68422 | -75.10506 | 16814 ft | 410 kts | 31° |
| 2026-05-04 16:52 | 39.73151 | -75.06421 | 16073 ft | 405 kts | 29° |
| 2026-05-04 16:52 | 39.75510 | -75.04430 | 15693 ft | 404 kts | 29° |
| 2026-05-04 16:53 | 39.80188 | -75.00437 | 14949 ft | 401 kts | 30° |
| 2026-05-04 16:53 | 39.87103 | -74.94407 | 13863 ft | 397 kts | 31° |
| 2026-05-04 16:54 | 39.89368 | -74.92343 | 13448 ft | 395 kts | 31° |
| 2026-05-04 16:55 | 39.97258 | -74.82662 | 12090 ft | 386 kts | 46° |
| 2026-05-04 16:55 | 40.00742 | -74.77548 | 11525 ft | 368 kts | 44° |
| 2026-05-04 16:56 | 40.04115 | -74.72720 | 10951 ft | 353 kts | 44° |
| 2026-05-04 16:56 | 40.08956 | -74.65771 | 10109 ft | 337 kts | 44° |
| 2026-05-04 16:57 | 40.10490 | -74.63563 | 10037 ft | 326 kts | 44° |
| 2026-05-04 16:57 | 40.13410 | -74.59353 | 9997 ft | 299 kts | 44° |
| 2026-05-04 16:58 | 40.17556 | -74.53382 | 9254 ft | 289 kts | 44° |
| 2026-05-04 16:58 | 40.18894 | -74.51450 | 9116 ft | 284 kts | 44° |
| 2026-05-04 16:59 | 40.21602 | -74.47711 | 8874 ft | 282 kts | 40° |
| 2026-05-04 17:00 | 40.26870 | -74.41128 | 8437 ft | 235 kts | 39° |
| 2026-05-04 17:00 | 40.30298 | -74.36806 | 8121 ft | 230 kts | 39° |
| 2026-05-04 17:01 | 40.32639 | -74.33848 | 7910 ft | 235 kts | 39° |
| 2026-05-04 17:01 | 40.34971 | -74.30892 | 7691 ft | 232 kts | 39° |
| 2026-05-04 17:02 | 40.37276 | -74.27968 | 7486 ft | 229 kts | 39° |
| 2026-05-04 17:02 | 40.39553 | -74.25078 | 7270 ft | 228 kts | 39° |
| 2026-05-04 17:03 | 40.40693 | -74.23629 | 7176 ft | 228 kts | 39° |
| 2026-05-04 17:03 | 40.41832 | -74.22182 | 7076 ft | 228 kts | 39° |
| 2026-05-04 17:03 | 40.44124 | -74.19267 | 6885 ft | 231 kts | 39° |
| 2026-05-04 17:04 | 40.46441 | -74.16317 | 6667 ft | 233 kts | 40° |
| 2026-05-04 17:04 | 40.48755 | -74.13366 | 6455 ft | 231 kts | 40° |
| 2026-05-04 17:05 | 40.51049 | -74.10441 | 6243 ft | 229 kts | 40° |
| 2026-05-04 17:05 | 40.53504 | -74.07933 | 6048 ft | 222 kts | 27° |
| 2026-05-04 17:06 | 40.56126 | -74.05770 | 5855 ft | 223 kts | 27° |
| 2026-05-04 17:06 | 40.57439 | -74.04675 | 5743 ft | 223 kts | 26° |
| 2026-05-04 17:07 | 40.60263 | -74.03055 | 5565 ft | 222 kts | 17° |
| 2026-05-04 17:07 | 40.61243 | -74.02610 | 5514 ft | 220 kts | 8° |
| 2026-05-04 17:07 | 40.63232 | -74.02023 | 5374 ft | 222 kts | 7° |
| 2026-05-04 17:07 | 40.64734 | -74.01568 | 5317 ft | 222 kts | 8° |
| 2026-05-04 17:08 | 40.66259 | -74.01113 | 5175 ft | 225 kts | 7° |
| 2026-05-04 17:08 | 40.69267 | -74.00206 | 4991 ft | 218 kts | 8° |
| 2026-05-04 17:08 | 40.70742 | -73.99775 | 4878 ft | 216 kts | 7° |
| 2026-05-04 17:09 | 40.72199 | -73.99349 | 4803 ft | 214 kts | 7° |
| 2026-05-04 17:09 | 40.73657 | -73.98928 | 4707 ft | 213 kts | 7° |
| 2026-05-04 17:09 | 40.75097 | -73.98508 | 4624 ft | 210 kts | 8° |
| 2026-05-04 17:10 | 40.77841 | -73.97696 | 4449 ft | 199 kts | 7° |
| 2026-05-04 17:10 | 40.81656 | -73.95164 | 4208 ft | 204 kts | 24° |
| 2026-05-04 17:11 | 40.82920 | -73.94323 | 4140 ft | 202 kts | 22° |
| 2026-05-04 17:11 | 40.84184 | -73.93499 | 4040 ft | 203 kts | 23° |
| 2026-05-04 17:11 | 40.86701 | -73.91823 | 3889 ft | 201 kts | 22° |
| 2026-05-04 17:12 | 40.87952 | -73.90980 | 3822 ft | 202 kts | 22° |
| 2026-05-04 17:12 | 40.90466 | -73.89280 | 3654 ft | 202 kts | 22° |
| 2026-05-04 17:13 | 40.94175 | -73.86773 | 3484 ft | 197 kts | 22° |
| 2026-05-04 17:14 | 40.97847 | -73.84307 | 3425 ft | 197 kts | 22° |
| 2026-05-04 17:14 | 40.99037 | -73.83405 | 3395 ft | 201 kts | 40° |
| 2026-05-04 17:14 | 41.00111 | -73.80104 | 3355 ft | 194 kts | 77° |
| 2026-05-04 17:15 | 41.00421 | -73.78442 | 3341 ft | 189 kts | 86° |
| 2026-05-04 17:15 | 40.99302 | -73.75759 | 3275 ft | 164 kts | 163° |
| 2026-05-04 17:16 | 40.97208 | -73.75154 | 3182 ft | 150 kts | 190° |
| 2026-05-04 17:16 | 40.94086 | -73.75547 | 3000 ft | 144 kts | 192° |
| 2026-05-04 17:17 | 40.93082 | -73.75682 | 3001 ft | 146 kts | 192° |
| 2026-05-04 17:17 | 40.90460 | -73.77211 | 2758 ft | 135 kts | 214° |
| 2026-05-04 17:18 | 40.89661 | -73.77849 | 2582 ft | 132 kts | 217° |
| 2026-05-04 17:18 | 40.88135 | -73.79092 | 2235 ft | 123 kts | 217° |
| 2026-05-04 17:19 | 40.86665 | -73.80334 | 1906 ft | 125 kts | 217° |
| 2026-05-04 17:19 | 40.85186 | -73.81558 | 1569 ft | 128 kts | 216° |
| 2026-05-04 17:20 | 40.83691 | -73.82798 | 1202 ft | 127 kts | 215° |
| 2026-05-04 17:20 | 40.82174 | -73.84057 | 856 ft | 129 kts | 213° |
| 2026-05-04 17:20 | 40.81421 | -73.84681 | 683 ft | 126 kts | 214° |
| 2026-05-04 17:21 | 40.79919 | -73.85927 | 360 ft | 121 kts | 214° |
| 2026-05-04 17:21 | 40.78468 | -73.87131 | 55 ft | 130 kts | 213° |
| 2026-05-04 17:22 | 40.77797 | -73.87681 | 18 ft | 69 kts | 213° |
| 2026-05-04 17:22 | 40.77586 | -73.87834 | 23 ft | 17 kts | 173° |
| 2026-05-04 17:23 | 40.77544 | -73.87772 | 22 ft | 0 kts | 101° |
| 2026-05-04 17:24 | 40.77544 | -73.87768 | 24 ft | 0 kts | 99° |
| 2026-05-04 17:25 | 40.77544 | -73.87759 | 23 ft | 2 kts | 85° |
| 2026-05-04 17:25 | 40.77591 | -73.87705 | 22 ft | 8 kts | 42° |
| 2026-05-04 17:26 | 40.77659 | -73.87566 | 23 ft | 9 kts | 32° |
| 2026-05-04 17:26 | 40.77692 | -73.87390 | 17 ft | 2 kts | 155° |
| 2026-05-04 17:27 | 40.77655 | -73.87386 | 18 ft | 4 kts | 171° |
| 2026-05-04 17:27 | 40.77631 | -73.87381 | 18 ft | 0 kts | 171° |